• Join FlightAware (Why Join?)
  • Login
  • US Flag 
10:37AM EST


 

Airport Tracker/Info


-or-


 

Live Flight TrackerFlight Track Log ✈ CHQ3072 ✈ 20-May-2013 ✈ KPHL - KBWI

Flight Track Log - Related Links

Times and Time Zones

All times are in EDT time to prevent confusion due to time zone crossing. See the CHQ3072 flight status page for this flight to view local times or setup timezone preferences in your user account.

Time Position Orientation Groundspeed Altitude Reporting Facility
EDT Latitude Longitude Course Direction KTS MPH feet Rate Location/Type
10:32AM 39.8667 -75.2833 218° Southwest 155 178 700  Level Philadelphia TRACON
10:33AM 39.8500 -75.3000 218° Southwest 169 194 2,000 2,040 Climbing Philadelphia TRACON
10:34AM 39.8167 -75.3667 237° Southwest 213 245 4,000 2,220 Climbing Philadelphia TRACON
10:35AM 39.7833 -75.3678 270° West  Level FlightAware Approximate
10:35AM 39.7667 -75.4333 226° Southwest 226 260 6,700  Level Philadelphia TRACON
10:36AM 39.7667 -75.4166 218° Southwest  Level FlightAware Approximate
10:36AM 39.7333 -75.5000 237° Southwest 245 282 8,700  Level Philadelphia TRACON
10:37AM 39.7488 -75.4692 237° Southwest  Level FlightAware Approximate
10:37AM 39.7000 -75.5833 243° Southwest 275 316 10,000  Level Philadelphia TRACON
10:38AM 39.7195 -75.5138 218° Southwest  Level FlightAware Approximate
10:38AM 39.6667 -75.6833 247° West 281 323 10,000  Level Philadelphia TRACON
10:39AM 39.6667 -75.7667 270° West 277 319 10,000  Level Philadelphia TRACON
10:40AM 39.6500 -75.8667 258° West 279 321 10,000  Level Philadelphia TRACON
10:41AM 39.6333 -76.0167 262° West 283 326 10,000  Level Potomac TRACON
10:42AM 39.6167 -76.1167 258° West 284 327 10,000 -660 Level Potomac TRACON
10:43AM 39.6000 -76.2167 258° West 274 315 8,700 -1,500 Descending Potomac TRACON
10:44AM 39.5833 -76.3000 255° West 259 298 7,000 -1,740 Descending Potomac TRACON
10:45AM 39.5667 -76.3833 255° West 255 293 5,300 -960 Descending Potomac TRACON
10:46AM 39.5500 -76.4667 255° West 232 267 5,100 -180 Descending Potomac TRACON
10:47AM 39.5000 -76.5167 218° Southwest 251 289 5,000 -60 Descending Potomac TRACON
10:48AM 39.4167 -76.5167 180° South 264 304 5,000 -420 Level Potomac TRACON
10:49AM 39.3500 -76.4833 159° South 255 293 4,200 -480 Descending Potomac TRACON
10:50AM 39.2833 -76.4667 169° South 246 283 4,100 -120 Descending Potomac TRACON
10:51AM 39.2167 -76.4500 169° South 258 297 4,000 -60 Descending Potomac TRACON
10:52AM 39.1500 -76.4167 159° South 241 277 4,000  Level Potomac TRACON
10:53AM 39.1000 -76.4333 195° South 218 251 4,000  Level Potomac TRACON
10:54AM 39.0500 -76.4833 218° Southwest 212 244 4,000  Level Potomac TRACON